sensor_id;sensor_type;location;lat;lon;timestamp;pressure;altitude;pressure_sealevel;temperature;humidity
63204;BME280;49297;43.210;27.914;2023-07-13T00:01:35;101211.91;;;25.39;80.70
63204;BME280;49297;43.210;27.914;2023-07-13T00:04:01;101214.63;;;25.39;80.91
63204;BME280;49297;43.210;27.914;2023-07-13T00:06:26;101212.94;;;25.38;80.32
63204;BME280;49297;43.210;27.914;2023-07-13T00:08:55;101211.53;;;25.35;80.31
63204;BME280;49297;43.210;27.914;2023-07-13T00:11:21;101218.81;;;25.35;80.24
63204;BME280;49297;43.210;27.914;2023-07-13T00:13:47;101217.78;;;25.36;80.53
63204;BME280;49297;43.210;27.914;2023-07-13T00:16:13;101211.75;;;25.34;80.42
63204;BME280;49297;43.210;27.914;2023-07-13T00:18:39;101206.13;;;25.35;80.27
63204;BME280;49297;43.210;27.914;2023-07-13T00:21:05;101200.69;;;25.35;80.24
63204;BME280;49297;43.210;27.914;2023-07-13T00:23:33;101197.97;;;25.35;80.36
63204;BME280;49297;43.210;27.914;2023-07-13T00:26:00;101196.31;;;25.34;80.57
63204;BME280;49297;43.210;27.914;2023-07-13T00:28:26;101200.91;;;25.34;80.49
63204;BME280;49297;43.210;27.914;2023-07-13T00:30:52;101197.13;;;25.35;80.73
63204;BME280;49297;43.210;27.914;2023-07-13T00:33:17;101194.44;;;25.35;80.69
63204;BME280;49297;43.210;27.914;2023-07-13T00:35:43;101191.72;;;25.35;80.53
63204;BME280;49297;43.210;27.914;2023-07-13T00:38:09;101177.56;;;25.33;80.67
63204;BME280;49297;43.210;27.914;2023-07-13T00:40:36;101179.47;;;25.32;80.85
63204;BME280;49297;43.210;27.914;2023-07-13T00:43:01;101181.34;;;25.32;80.43
63204;BME280;49297;43.210;27.914;2023-07-13T00:47:54;101171.56;;;25.31;80.99
63204;BME280;49297;43.210;27.914;2023-07-13T00:50:22;101167.41;;;25.28;80.86
63204;BME280;49297;43.210;27.914;2023-07-13T00:52:54;101160.34;;;25.27;81.28
63204;BME280;49297;43.210;27.914;2023-07-13T00:55:23;101161.81;;;25.23;81.25
63204;BME280;49297;43.210;27.914;2023-07-13T00:57:49;101161.81;;;25.23;81.34
63204;BME280;49297;43.210;27.914;2023-07-13T01:00:15;101157.22;;;25.23;81.34
63204;BME280;49297;43.210;27.914;2023-07-13T01:02:44;101159.31;;;25.21;81.72
63204;BME280;49297;43.210;27.914;2023-07-13T01:05:16;101156.41;;;25.23;81.53
63204;BME280;49297;43.210;27.914;2023-07-13T01:07:43;101152.88;;;25.22;81.48
63204;BME280;49297;43.210;27.914;2023-07-13T01:10:11;101150.16;;;25.22;81.87
63204;BME280;49297;43.210;27.914;2023-07-13T01:12:37;101152.88;;;25.22;81.63
63204;BME280;49297;43.210;27.914;2023-07-13T01:15:04;101149.31;;;25.22;81.70
63204;BME280;49297;43.210;27.914;2023-07-13T01:17:33;101149.31;;;25.22;81.96
63204;BME280;49297;43.210;27.914;2023-07-13T01:19:59;101142.03;;;25.22;81.52
63204;BME280;49297;43.210;27.914;2023-07-13T01:22:26;101136.63;;;25.22;81.80
63204;BME280;49297;43.210;27.914;2023-07-13T01:24:53;101134.72;;;25.23;81.60
63204;BME280;49297;43.210;27.914;2023-07-13T01:27:25;101125.78;;;25.22;81.78
63204;BME280;49297;43.210;27.914;2023-07-13T01:29:52;101126.81;;;25.21;81.68
63204;BME280;49297;43.210;27.914;2023-07-13T01:32:23;101124.94;;;25.22;81.88
63204;BME280;49297;43.210;27.914;2023-07-13T01:34:51;101135.16;;;25.20;82.01
63204;BME280;49297;43.210;27.914;2023-07-13T01:37:20;101127.25;;;25.18;82.08
63204;BME280;49297;43.210;27.914;2023-07-13T01:39:46;101128.09;;;25.19;81.80
63204;BME280;49297;43.210;27.914;2023-07-13T01:42:13;101131.63;;;25.19;82.01
63204;BME280;49297;43.210;27.914;2023-07-13T01:44:39;101123.72;;;25.18;81.88
63204;BME280;49297;43.210;27.914;2023-07-13T01:47:05;101119.59;;;25.15;82.22
63204;BME280;49297;43.210;27.914;2023-07-13T01:49:31;101116.03;;;25.15;82.29
63204;BME280;49297;43.210;27.914;2023-07-13T01:51:56;101120.63;;;25.14;82.56
63204;BME280;49297;43.210;27.914;2023-07-13T01:54:22;101117.13;;;25.14;82.34
63204;BME280;49297;43.210;27.914;2023-07-13T01:56:48;101110.63;;;25.15;82.23
63204;BME280;49297;43.210;27.914;2023-07-13T01:59:14;101120.63;;;25.14;82.40
63204;BME280;49297;43.210;27.914;2023-07-13T02:01:40;101111.69;;;25.14;82.34
63204;BME280;49297;43.210;27.914;2023-07-13T02:04:05;101107.09;;;25.14;82.27
63204;BME280;49297;43.210;27.914;2023-07-13T02:06:31;101115.22;;;25.14;82.55
63204;BME280;49297;43.210;27.914;2023-07-13T02:08:58;101115.44;;;25.13;82.47
63204;BME280;49297;43.210;27.914;2023-07-13T02:11:24;101112.75;;;25.13;82.26
63204;BME280;49297;43.210;27.914;2023-07-13T02:13:50;101118.97;;;25.13;82.32
63204;BME280;49297;43.210;27.914;2023-07-13T02:16:17;101111.91;;;25.12;82.39
63204;BME280;49297;43.210;27.914;2023-07-13T02:18:43;101117.34;;;25.12;82.31
63204;BME280;49297;43.210;27.914;2023-07-13T02:21:08;101120.03;;;25.12;82.44
63204;BME280;49297;43.210;27.914;2023-07-13T02:23:36;101112.13;;;25.11;82.23
63204;BME280;49297;43.210;27.914;2023-07-13T02:26:03;101109.44;;;25.11;82.34
63204;BME280;49297;43.210;27.914;2023-07-13T02:28:29;101112.97;;;25.11;82.62
63204;BME280;49297;43.210;27.914;2023-07-13T02:30:55;101108.38;;;25.12;82.33
63204;BME280;49297;43.210;27.914;2023-07-13T02:33:20;101112.13;;;25.11;82.34
63204;BME280;49297;43.210;27.914;2023-07-13T02:35:46;101109.44;;;25.11;82.26
63204;BME280;49297;43.210;27.914;2023-07-13T02:38:12;101105.69;;;25.12;82.25
63204;BME280;49297;43.210;27.914;2023-07-13T02:40:37;101102.34;;;25.09;82.05
63204;BME280;49297;43.210;27.914;2023-07-13T02:43:04;101110.47;;;25.09;82.19
63204;BME280;49297;43.210;27.914;2023-07-13T02:45:29;101111.53;;;25.08;82.26
63204;BME280;49297;43.210;27.914;2023-07-13T02:47:55;101107.16;;;25.07;82.21
63204;BME280;49297;43.210;27.914;2023-07-13T02:50:22;101108.22;;;25.06;82.01
63204;BME280;49297;43.210;27.914;2023-07-13T02:52:48;101118.00;;;25.07;82.20
63204;BME280;49297;43.210;27.914;2023-07-13T02:55:13;101112.56;;;25.07;82.12
63204;BME280;49297;43.210;27.914;2023-07-13T02:57:39;101120.47;;;25.09;82.09
63204;BME280;49297;43.210;27.914;2023-07-13T03:00:06;101108.00;;;25.08;81.86
63204;BME280;49297;43.210;27.914;2023-07-13T03:02:34;101111.53;;;25.08;81.83
63204;BME280;49297;43.210;27.914;2023-07-13T03:05:00;101105.06;;;25.09;81.97
63204;BME280;49297;43.210;27.914;2023-07-13T03:07:26;101102.13;;;25.11;81.97
63204;BME280;49297;43.210;27.914;2023-07-13T03:09:56;101100.25;;;25.12;82.06
63204;BME280;49297;43.210;27.914;2023-07-13T03:12:23;101107.09;;;25.14;81.58
63204;BME280;49297;43.210;27.914;2023-07-13T03:14:48;101100.63;;;25.15;81.92
63204;BME280;49297;43.210;27.914;2023-07-13T03:17:14;101104.16;;;25.16;81.50
63204;BME280;49297;43.210;27.914;2023-07-13T03:19:40;101101.03;;;25.19;81.22
63204;BME280;49297;43.210;27.914;2023-07-13T03:22:06;101106.44;;;25.19;80.94
63204;BME280;49297;43.210;27.914;2023-07-13T03:24:33;101105.97;;;25.22;80.99
63204;BME280;49297;43.210;27.914;2023-07-13T03:27:01;101107.63;;;25.23;81.17
63204;BME280;49297;43.210;27.914;2023-07-13T03:29:27;101100.94;;;25.25;80.89
63204;BME280;49297;43.210;27.914;2023-07-13T03:31:53;101103.44;;;25.27;80.84
63204;BME280;49297;43.210;27.914;2023-07-13T03:34:19;101110.53;;;25.28;80.92
63204;BME280;49297;43.210;27.914;2023-07-13T03:36:44;101107.34;;;25.31;80.91
63204;BME280;49297;43.210;27.914;2023-07-13T03:39:10;101109.59;;;25.34;80.73
63204;BME280;49297;43.210;27.914;2023-07-13T03:41:36;101105.84;;;25.35;80.63
63204;BME280;49297;43.210;27.914;2023-07-13T03:44:02;101108.34;;;25.37;80.75
63204;BME280;49297;43.210;27.914;2023-07-13T03:46:28;101109.16;;;25.37;80.54
63204;BME280;49297;43.210;27.914;2023-07-13T03:48:55;101110.59;;;25.40;80.89
63204;BME280;49297;43.210;27.914;2023-07-13T03:51:21;101102.00;;;25.43;80.92
63204;BME280;49297;43.210;27.914;2023-07-13T03:53:47;101113.44;;;25.45;80.54
63204;BME280;49297;43.210;27.914;2023-07-13T03:56:14;101117.59;;;25.48;79.81
63204;BME280;49297;43.210;27.914;2023-07-13T03:58:42;101113.81;;;25.49;79.21
63204;BME280;49297;43.210;27.914;2023-07-13T04:01:10;101119.59;;;25.52;78.14
63204;BME280;49297;43.210;27.914;2023-07-13T04:03:36;101117.13;;;25.51;78.64
63204;BME280;49297;43.210;27.914;2023-07-13T04:06:05;101122.91;;;25.54;79.18
63204;BME280;49297;43.210;27.914;2023-07-13T04:08:35;101120.56;;;25.58;79.04
63204;BME280;49297;43.210;27.914;2023-07-13T04:11:02;101113.88;;;25.60;77.91
63204;BME280;49297;43.210;27.914;2023-07-13T04:13:28;101120.56;;;25.58;78.31
63204;BME280;49297;43.210;27.914;2023-07-13T04:15:54;101117.63;;;25.59;78.00
63204;BME280;49297;43.210;27.914;2023-07-13T04:18:21;101118.25;;;25.61;76.99
63204;BME280;49297;43.210;27.914;2023-07-13T04:20:47;101121.94;;;25.67;76.80
63204;BME280;49297;43.210;27.914;2023-07-13T04:23:14;101108.28;;;25.74;76.57
63204;BME280;49297;43.210;27.914;2023-07-13T04:25:43;101112.22;;;25.78;76.09
63204;BME280;49297;43.210;27.914;2023-07-13T04:28:09;101114.44;;;25.81;75.24
63204;BME280;49297;43.210;27.914;2023-07-13T04:30:35;101118.38;;;25.85;75.98
63204;BME280;49297;43.210;27.914;2023-07-13T04:33:01;101123.09;;;25.90;76.40
63204;BME280;49297;43.210;27.914;2023-07-13T04:35:27;101117.22;;;25.93;76.00
63204;BME280;49297;43.210;27.914;2023-07-13T04:37:52;101115.50;;;25.98;76.07
63204;BME280;49297;43.210;27.914;2023-07-13T04:40:18;101120.00;;;26.05;75.91
63204;BME280;49297;43.210;27.914;2023-07-13T04:42:45;101124.72;;;26.09;75.49
63204;BME280;49297;43.210;27.914;2023-07-13T04:45:13;101124.84;;;26.14;75.34
63204;BME280;49297;43.210;27.914;2023-07-13T04:47:39;101129.59;;;26.19;74.90
63204;BME280;49297;43.210;27.914;2023-07-13T04:50:07;101124.31;;;26.24;74.54
63204;BME280;49297;43.210;27.914;2023-07-13T04:52:33;101125.03;;;26.31;74.63
63204;BME280;49297;43.210;27.914;2023-07-13T04:55:00;101128.69;;;26.37;73.97
63204;BME280;49297;43.210;27.914;2023-07-13T04:57:26;101132.38;;;26.43;73.18
63204;BME280;49297;43.210;27.914;2023-07-13T04:59:52;101126.84;;;26.49;72.95
63204;BME280;49297;43.210;27.914;2023-07-13T05:02:20;101127.56;;;26.56;73.14
63204;BME280;49297;43.210;27.914;2023-07-13T05:04:49;101120.38;;;26.62;72.56
63204;BME280;49297;43.210;27.914;2023-07-13T05:07:15;101134.09;;;26.67;71.77
63204;BME280;49297;43.210;27.914;2023-07-13T05:09:41;101132.31;;;26.73;71.40
63204;BME280;49297;43.210;27.914;2023-07-13T05:12:09;101127.81;;;26.78;71.24
63204;BME280;49297;43.210;27.914;2023-07-13T05:14:35;101131.25;;;26.86;71.01
63204;BME280;49297;43.210;27.914;2023-07-13T05:17:01;101126.53;;;26.93;70.92
63204;BME280;49297;43.210;27.914;2023-07-13T05:19:27;101131.03;;;26.99;70.10
63204;BME280;49297;43.210;27.914;2023-07-13T05:21:52;101142.00;;;27.04;69.69
63204;BME280;49297;43.210;27.914;2023-07-13T05:24:18;101139.66;;;27.08;69.75
63204;BME280;49297;43.210;27.914;2023-07-13T05:26:44;101138.69;;;27.14;68.97
63204;BME280;49297;43.210;27.914;2023-07-13T05:29:10;101139.84;;;27.18;68.99
63204;BME280;49297;43.210;27.914;2023-07-13T05:31:36;101138.56;;;27.21;68.41
63204;BME280;49297;43.210;27.914;2023-07-13T05:34:02;101141.06;;;27.22;68.37
63204;BME280;49297;43.210;27.914;2023-07-13T05:36:28;101139.06;;;27.29;68.73
63204;BME280;49297;43.210;27.914;2023-07-13T05:38:54;101137.03;;;27.37;68.11
63204;BME280;49297;43.210;27.914;2023-07-13T05:41:20;101144.22;;;27.43;68.07
63204;BME280;49297;43.210;27.914;2023-07-13T05:43:45;101147.06;;;27.48;67.95
63204;BME280;49297;43.210;27.914;2023-07-13T05:46:11;101142.78;;;27.52;67.41
63204;BME280;49297;43.210;27.914;2023-07-13T05:48:37;101151.63;;;27.59;67.14
63204;BME280;49297;43.210;27.914;2023-07-13T05:51:03;101150.09;;;27.63;66.87
63204;BME280;49297;43.210;27.914;2023-07-13T05:53:29;101152.66;;;27.70;66.96
63204;BME280;49297;43.210;27.914;2023-07-13T05:55:55;101146.28;;;27.76;65.86
63204;BME280;49297;43.210;27.914;2023-07-13T05:58:21;101155.34;;;27.82;65.30
63204;BME280;49297;43.210;27.914;2023-07-13T06:00:47;101149.44;;;27.85;64.85
63204;BME280;49297;43.210;27.914;2023-07-13T06:03:14;101145.97;;;27.89;64.66
63204;BME280;49297;43.210;27.914;2023-07-13T06:05:40;101148.00;;;27.94;62.56
63204;BME280;49297;43.210;27.914;2023-07-13T06:08:07;101149.72;;;28.00;62.19
63204;BME280;49297;43.210;27.914;2023-07-13T06:10:33;101142.75;;;28.04;61.29
63204;BME280;49297;43.210;27.914;2023-07-13T06:12:59;101144.72;;;28.09;60.83
63204;BME280;49297;43.210;27.914;2023-07-13T06:15:25;101144.81;;;28.14;59.99
63204;BME280;49297;43.210;27.914;2023-07-13T06:17:51;101143.88;;;28.20;59.12
63204;BME280;49297;43.210;27.914;2023-07-13T06:20:17;101149.41;;;28.25;57.71
63204;BME280;49297;43.210;27.914;2023-07-13T06:22:43;101145.50;;;28.21;57.05
63204;BME280;49297;43.210;27.914;2023-07-13T06:25:09;101149.06;;;28.22;57.04
63204;BME280;49297;43.210;27.914;2023-07-13T06:27:35;101146.91;;;28.24;56.59
63204;BME280;49297;43.210;27.914;2023-07-13T06:30:01;101145.00;;;28.24;56.03
63204;BME280;49297;43.210;27.914;2023-07-13T06:32:27;101140.16;;;28.26;56.58
63204;BME280;49297;43.210;27.914;2023-07-13T06:34:52;101147.06;;;28.34;56.17
63204;BME280;49297;43.210;27.914;2023-07-13T06:37:19;101142.91;;;28.43;55.75
63204;BME280;49297;43.210;27.914;2023-07-13T06:39:45;101138.94;;;28.51;55.85
63204;BME280;49297;43.210;27.914;2023-07-13T06:42:11;101144.81;;;28.60;55.67
63204;BME280;49297;43.210;27.914;2023-07-13T06:44:37;101140.84;;;28.67;55.87
63204;BME280;49297;43.210;27.914;2023-07-13T06:47:03;101143.16;;;28.76;55.33
63204;BME280;49297;43.210;27.914;2023-07-13T06:49:28;101147.38;;;28.83;55.33
63204;BME280;49297;43.210;27.914;2023-07-13T06:51:54;101141.50;;;28.92;55.32
63204;BME280;49297;43.210;27.914;2023-07-13T06:54:20;101145.19;;;29.02;57.56
63204;BME280;49297;43.210;27.914;2023-07-13T06:56:46;101136.00;;;29.09;59.29
63204;BME280;49297;43.210;27.914;2023-07-13T06:59:12;101143.22;;;29.15;59.63
63204;BME280;49297;43.210;27.914;2023-07-13T07:01:37;101140.81;;;29.18;60.13
63204;BME280;49297;43.210;27.914;2023-07-13T07:04:04;101141.38;;;29.20;61.01
63204;BME280;49297;43.210;27.914;2023-07-13T07:06:29;101137.56;;;29.21;61.22
63204;BME280;49297;43.210;27.914;2023-07-13T07:08:55;101134.28;;;29.19;61.65
63204;BME280;49297;43.210;27.914;2023-07-13T07:11:23;101137.25;;;29.18;61.43
63204;BME280;49297;43.210;27.914;2023-07-13T07:13:51;101142.97;;;29.16;61.30
63204;BME280;49297;43.210;27.914;2023-07-13T07:16:18;101142.63;;;29.13;61.90
63204;BME280;49297;43.210;27.914;2023-07-13T07:18:44;101139.31;;;29.11;62.44
63204;BME280;49297;43.210;27.914;2023-07-13T07:21:10;101144.75;;;29.11;62.68
63204;BME280;49297;43.210;27.914;2023-07-13T07:23:36;101143.63;;;29.07;63.15
63204;BME280;49297;43.210;27.914;2023-07-13T07:26:02;101147.59;;;28.99;63.52
63204;BME280;49297;43.210;27.914;2023-07-13T07:28:28;101150.31;;;28.99;64.09
63204;BME280;49297;43.210;27.914;2023-07-13T07:30:56;101148.16;;;29.01;63.91
63204;BME280;49297;43.210;27.914;2023-07-13T07:33:23;101140.50;;;28.98;63.85
63204;BME280;49297;43.210;27.914;2023-07-13T07:35:49;101139.09;;;28.95;64.16
63204;BME280;49297;43.210;27.914;2023-07-13T07:38:15;101148.41;;;28.99;64.12
63204;BME280;49297;43.210;27.914;2023-07-13T07:40:41;101146.03;;;29.03;63.65
63204;BME280;49297;43.210;27.914;2023-07-13T07:43:08;101147.41;;;29.05;63.74
63204;BME280;49297;43.210;27.914;2023-07-13T07:45:40;101145.53;;;29.06;63.40
63204;BME280;49297;43.210;27.914;2023-07-13T07:48:06;101149.38;;;29.10;63.46
63204;BME280;49297;43.210;27.914;2023-07-13T07:50:33;101153.03;;;29.16;63.89
63204;BME280;49297;43.210;27.914;2023-07-13T07:52:58;101149.56;;;29.20;63.75
63204;BME280;49297;43.210;27.914;2023-07-13T07:55:25;101144.94;;;29.21;63.73
63204;BME280;49297;43.210;27.914;2023-07-13T07:57:55;101148.53;;;29.27;63.34
63204;BME280;49297;43.210;27.914;2023-07-13T08:00:22;101139.63;;;29.31;62.76
63204;BME280;49297;43.210;27.914;2023-07-13T08:02:47;101145.16;;;29.36;62.22
63204;BME280;49297;43.210;27.914;2023-07-13T08:05:13;101149.50;;;29.37;62.02
63204;BME280;49297;43.210;27.914;2023-07-13T08:07:39;101147.25;;;29.29;62.53
63204;BME280;49297;43.210;27.914;2023-07-13T08:10:06;101149.41;;;29.27;62.85
63204;BME280;49297;43.210;27.914;2023-07-13T08:12:37;101153.00;;;29.33;62.55
63204;BME280;49297;43.210;27.914;2023-07-13T08:15:03;101147.38;;;29.39;62.19
63204;BME280;49297;43.210;27.914;2023-07-13T08:17:32;101144.38;;;29.41;62.28
63204;BME280;49297;43.210;27.914;2023-07-13T08:19:59;101152.22;;;29.37;61.82
63204;BME280;49297;43.210;27.914;2023-07-13T08:22:24;101139.38;;;29.33;60.78
63204;BME280;49297;43.210;27.914;2023-07-13T08:24:50;101145.31;;;29.30;62.21
63204;BME280;49297;43.210;27.914;2023-07-13T08:27:25;101145.56;;;29.28;62.66
63204;BME280;49297;43.210;27.914;2023-07-13T08:29:52;101140.06;;;29.23;61.97
63204;BME280;49297;43.210;27.914;2023-07-13T08:32:19;101137.56;;;29.21;62.42
63204;BME280;49297;43.210;27.914;2023-07-13T08:34:46;101143.31;;;29.20;62.88
63204;BME280;49297;43.210;27.914;2023-07-13T08:37:12;101144.69;;;29.22;62.85
63204;BME280;49297;43.210;27.914;2023-07-13T08:39:38;101136.91;;;29.31;63.30
63204;BME280;49297;43.210;27.914;2023-07-13T08:44:44;101143.47;;;29.35;60.76
63204;BME280;49297;43.210;27.914;2023-07-13T08:47:15;101148.38;;;29.33;60.58
63204;BME280;49297;43.210;27.914;2023-07-13T08:49:43;101142.66;;;29.35;58.36
63204;BME280;49297;43.210;27.914;2023-07-13T08:52:42;101141.63;;;29.41;58.56
63204;BME280;49297;43.210;27.914;2023-07-13T08:55:16;101135.13;;;29.42;58.88
63204;BME280;49297;43.210;27.914;2023-07-13T08:57:48;101143.06;;;29.43;58.66
63204;BME280;49297;43.210;27.914;2023-07-13T09:00:18;101142.25;;;29.43;58.32
63204;BME280;49297;43.210;27.914;2023-07-13T09:02:50;101138.97;;;29.46;58.66
63204;BME280;49297;43.210;27.914;2023-07-13T09:05:24;101140.41;;;29.49;59.87
63204;BME280;49297;43.210;27.914;2023-07-13T09:10:47;101138.38;;;29.61;57.99
63204;BME280;49297;43.210;27.914;2023-07-13T09:15:46;101130.03;;;29.73;57.00
63204;BME280;49297;43.210;27.914;2023-07-13T09:18:21;101127.03;;;29.74;57.72
63204;BME280;49297;43.210;27.914;2023-07-13T09:20:53;101128.47;;;29.77;54.79
63204;BME280;49297;43.210;27.914;2023-07-13T09:23:22;101133.41;;;29.80;54.42
63204;BME280;49297;43.210;27.914;2023-07-13T09:25:54;101132.44;;;29.91;54.41
63204;BME280;49297;43.210;27.914;2023-07-13T09:28:27;101145.38;;;30.01;54.61
63204;BME280;49297;43.210;27.914;2023-07-13T09:31:07;101143.81;;;30.10;55.30
63204;BME280;49297;43.210;27.914;2023-07-13T09:33:35;101136.78;;;30.14;54.11
63204;BME280;49297;43.210;27.914;2023-07-13T09:36:01;101129.91;;;30.12;55.46
63204;BME280;49297;43.210;27.914;2023-07-13T09:38:29;101124.25;;;30.18;55.65
63204;BME280;49297;43.210;27.914;2023-07-13T09:41:14;101132.53;;;30.29;55.44
63204;BME280;49297;43.210;27.914;2023-07-13T09:44:06;101131.00;;;30.38;55.42
63204;BME280;49297;43.210;27.914;2023-07-13T09:46:34;101128.31;;;30.43;55.12
63204;BME280;49297;43.210;27.914;2023-07-13T09:49:00;101129.19;;;30.49;55.96
63204;BME280;49297;43.210;27.914;2023-07-13T09:51:26;101122.66;;;30.55;56.61
63204;BME280;49297;43.210;27.914;2023-07-13T09:53:52;101124.34;;;30.61;57.01
63204;BME280;49297;43.210;27.914;2023-07-13T09:56:27;101117.78;;;30.62;57.49
63204;BME280;49297;43.210;27.914;2023-07-13T09:58:53;101127.47;;;30.75;57.51
63204;BME280;49297;43.210;27.914;2023-07-13T10:03:59;101119.34;;;30.90;56.65
63204;BME280;49297;43.210;27.914;2023-07-13T10:06:25;101110.97;;;31.02;55.93
63204;BME280;49297;43.210;27.914;2023-07-13T10:08:56;101105.34;;;31.24;55.83
63204;BME280;49297;43.210;27.914;2023-07-13T10:11:26;101109.56;;;31.53;54.51
63204;BME280;49297;43.210;27.914;2023-07-13T10:13:53;101099.81;;;31.82;54.47
63204;BME280;49297;43.210;27.914;2023-07-13T10:16:21;101093.31;;;32.09;52.73
63204;BME280;49297;43.210;27.914;2023-07-13T10:19:24;101093.31;;;32.14;53.26
63204;BME280;49297;43.210;27.914;2023-07-13T10:22:09;101090.28;;;32.26;53.12
63204;BME280;49297;43.210;27.914;2023-07-13T10:24:39;101081.53;;;32.39;52.39
63204;BME280;49297;43.210;27.914;2023-07-13T10:27:12;101083.44;;;32.59;52.83
63204;BME280;49297;43.210;27.914;2023-07-13T10:30:04;101076.56;;;32.72;51.55
63204;BME280;49297;43.210;27.914;2023-07-13T10:32:35;101078.47;;;32.72;51.12
63204;BME280;49297;43.210;27.914;2023-07-13T10:35:01;101080.63;;;32.85;51.33
63204;BME280;49297;43.210;27.914;2023-07-13T10:37:40;101079.44;;;33.17;50.97
63204;BME280;49297;43.210;27.914;2023-07-13T10:40:14;101086.97;;;33.46;50.36
63204;BME280;49297;43.210;27.914;2023-07-13T10:42:44;101085.75;;;33.72;49.62
63204;BME280;49297;43.210;27.914;2023-07-13T10:45:20;101083.41;;;33.95;48.94
63204;BME280;49297;43.210;27.914;2023-07-13T10:47:48;101077.94;;;34.29;47.64
63204;BME280;49297;43.210;27.914;2023-07-13T10:50:21;101078.50;;;34.56;47.07
63204;BME280;49297;43.210;27.914;2023-07-13T10:52:53;101070.63;;;34.78;47.08
63204;BME280;49297;43.210;27.914;2023-07-13T10:55:37;101066.44;;;34.81;46.16
63204;BME280;49297;43.210;27.914;2023-07-13T10:58:15;101071.03;;;34.91;46.70
63204;BME280;49297;43.210;27.914;2023-07-13T11:01:29;101061.28;;;35.22;45.79
63204;BME280;49297;43.210;27.914;2023-07-13T11:03:58;101065.31;;;35.68;44.95
63204;BME280;49297;43.210;27.914;2023-07-13T11:06:37;101072.16;;;35.90;43.69
63204;BME280;49297;43.210;27.914;2023-07-13T11:09:40;101072.31;;;35.79;44.26
63204;BME280;49297;43.210;27.914;2023-07-13T11:15:13;101067.88;;;36.16;44.24
63204;BME280;49297;43.210;27.914;2023-07-13T11:17:54;101076.59;;;36.24;44.37
63204;BME280;49297;43.210;27.914;2023-07-13T11:20:35;101073.75;;;36.29;43.96
63204;BME280;49297;43.210;27.914;2023-07-13T11:25:42;101074.28;;;36.45;43.10
63204;BME280;49297;43.210;27.914;2023-07-13T11:33:28;101075.88;;;36.92;41.95
63204;BME280;49297;43.210;27.914;2023-07-13T11:36:03;101060.34;;;37.10;40.90
63204;BME280;49297;43.210;27.914;2023-07-13T11:41:00;101069.63;;;37.28;39.32
63204;BME280;49297;43.210;27.914;2023-07-13T11:43:29;101059.19;;;37.39;39.10
63204;BME280;49297;43.210;27.914;2023-07-13T11:45:55;101072.34;;;37.56;39.26
63204;BME280;49297;43.210;27.914;2023-07-13T11:48:29;101074.16;;;37.61;39.80
63204;BME280;49297;43.210;27.914;2023-07-13T11:51:04;101066.78;;;37.20;39.91
63204;BME280;49297;43.210;27.914;2023-07-13T11:53:39;101051.28;;;36.96;40.08
63204;BME280;49297;43.210;27.914;2023-07-13T11:56:06;101044.31;;;36.99;40.96
63204;BME280;49297;43.210;27.914;2023-07-13T11:58:32;101056.78;;;37.10;40.40
63204;BME280;49297;43.210;27.914;2023-07-13T12:01:00;101056.66;;;37.15;40.15
63204;BME280;49297;43.210;27.914;2023-07-13T12:03:30;101065.75;;;37.29;40.34
63204;BME280;49297;43.210;27.914;2023-07-13T12:05:58;101057.13;;;37.45;40.08
63204;BME280;49297;43.210;27.914;2023-07-13T12:08:25;101048.03;;;37.44;40.06
63204;BME280;49297;43.210;27.914;2023-07-13T12:11:00;101046.69;;;37.42;40.20
63204;BME280;49297;43.210;27.914;2023-07-13T12:13:27;101045.72;;;37.60;39.81
63204;BME280;49297;43.210;27.914;2023-07-13T12:15:56;101046.66;;;37.56;39.63
63204;BME280;49297;43.210;27.914;2023-07-13T12:18:23;101060.44;;;37.33;39.73
63204;BME280;49297;43.210;27.914;2023-07-13T12:20:56;101050.88;;;36.75;41.43
63204;BME280;49297;43.210;27.914;2023-07-13T12:23:34;101042.50;;;36.80;41.47
63204;BME280;49297;43.210;27.914;2023-07-13T12:26:03;101044.69;;;37.06;40.70
63204;BME280;49297;43.210;27.914;2023-07-13T12:28:38;101050.13;;;37.25;40.41
63204;BME280;49297;43.210;27.914;2023-07-13T12:31:07;101042.59;;;37.53;39.69
63204;BME280;49297;43.210;27.914;2023-07-13T12:33:39;101037.03;;;37.67;39.32
63204;BME280;49297;43.210;27.914;2023-07-13T12:36:08;101041.44;;;37.90;39.21
63204;BME280;49297;43.210;27.914;2023-07-13T12:38:37;101034.38;;;38.07;39.09
63204;BME280;49297;43.210;27.914;2023-07-13T12:41:03;101030.06;;;37.92;39.24
63204;BME280;49297;43.210;27.914;2023-07-13T12:43:34;101016.88;;;37.89;38.91
63204;BME280;49297;43.210;27.914;2023-07-13T12:46:17;101015.44;;;37.69;39.59
63204;BME280;49297;43.210;27.914;2023-07-13T12:48:43;101018.13;;;37.60;39.44
63204;BME280;49297;43.210;27.914;2023-07-13T12:51:14;101022.19;;;37.40;40.02
63204;BME280;49297;43.210;27.914;2023-07-13T12:53:47;101013.00;;;37.31;40.26
63204;BME280;49297;43.210;27.914;2023-07-13T12:56:23;101011.50;;;37.11;41.02
63204;BME280;49297;43.210;27.914;2023-07-13T12:58:50;101005.59;;;36.90;41.00
63204;BME280;49297;43.210;27.914;2023-07-13T13:01:26;101000.00;;;36.67;42.30
63204;BME280;49297;43.210;27.914;2023-07-13T13:03:53;100993.25;;;36.46;42.62
63204;BME280;49297;43.210;27.914;2023-07-13T13:06:24;100980.00;;;36.15;42.72
63204;BME280;49297;43.210;27.914;2023-07-13T13:08:53;100978.25;;;35.91;43.30
63204;BME280;49297;43.210;27.914;2023-07-13T13:11:20;100976.41;;;35.68;44.23
63204;BME280;49297;43.210;27.914;2023-07-13T13:13:49;100977.03;;;35.45;44.64